createdAt,value
2018-12-05T00:00:52.548Z,3.7
2018-12-05T00:05:52.599Z,3.6
2018-12-05T00:10:52.408Z,3.5
2018-12-05T00:15:52.408Z,3.4
2018-12-05T00:20:52.599Z,3.3
2018-12-05T00:25:52.639Z,3.2
2018-12-05T00:30:52.425Z,3.1
2018-12-05T00:35:52.403Z,3.1
2018-12-05T00:40:52.414Z,2.9
2018-12-05T00:45:52.418Z,2.8
2018-12-05T00:50:52.585Z,2.8
2018-12-05T00:55:52.621Z,2.7
2018-12-05T01:00:52.414Z,2.5
2018-12-05T01:05:52.580Z,2.5
2018-12-05T01:10:52.425Z,2.4
2018-12-05T01:15:52.547Z,2.4
2018-12-05T01:20:52.452Z,2.4
2018-12-05T01:25:52.465Z,2.3
2018-12-05T01:30:52.450Z,2.3
2018-12-05T01:35:52.583Z,2.2
2018-12-05T01:40:52.563Z,2.2
2018-12-05T01:45:52.670Z,2.1
2018-12-05T01:50:52.580Z,2.1
2018-12-05T01:55:52.618Z,2.1
2018-12-05T02:00:52.468Z,2
2018-12-05T02:05:52.578Z,2
2018-12-05T02:10:52.613Z,1.9
2018-12-05T02:15:52.661Z,1.9
2018-12-05T02:20:52.698Z,1.9
2018-12-05T02:25:52.465Z,2
2018-12-05T02:30:52.668Z,2
2018-12-05T02:35:52.487Z,1.9
2018-12-05T02:40:52.475Z,1.9
2018-12-05T02:45:52.501Z,1.9
2018-12-05T02:50:52.479Z,1.9
2018-12-05T02:55:52.614Z,1.9
2018-12-05T03:00:52.647Z,1.8
2018-12-05T03:05:52.709Z,1.8
2018-12-05T03:10:52.612Z,1.8
2018-12-05T03:15:52.643Z,1.7
2018-12-05T03:20:52.693Z,1.6
2018-12-05T03:25:52.497Z,1.6
2018-12-05T03:30:52.521Z,1.5
2018-12-05T03:35:52.507Z,1.5
2018-12-05T03:40:52.509Z,1.4
2018-12-05T03:45:52.618Z,1.3
2018-12-05T03:50:52.496Z,1.3
2018-12-05T03:55:52.691Z,1.3
2018-12-05T04:00:52.756Z,1.4
2018-12-05T04:05:52.651Z,1.3
2018-12-05T04:10:52.694Z,1.3
2018-12-05T04:15:52.648Z,1.3
2018-12-05T04:20:52.519Z,1.3
2018-12-05T04:25:52.726Z,1.3
2018-12-05T04:30:52.752Z,1.3
2018-12-05T04:35:52.676Z,1.3
2018-12-05T04:40:52.674Z,1.3
2018-12-05T04:45:52.761Z,1.3
2018-12-05T04:50:52.667Z,1.3
2018-12-05T04:55:52.714Z,1.3
2018-12-05T05:00:52.763Z,1.2
2018-12-05T05:05:52.798Z,1.2
2018-12-05T05:10:52.712Z,1.2
2018-12-05T05:15:52.770Z,1.2
2018-12-05T05:20:52.679Z,1.2
2018-12-05T05:25:52.555Z,1.2
2018-12-05T05:30:52.567Z,1.2
2018-12-05T05:35:52.675Z,1.2
2018-12-05T05:40:52.718Z,1.2
2018-12-05T05:45:52.752Z,1.2
2018-12-05T05:50:52.805Z,1.1
2018-12-05T05:55:52.539Z,1.1
2018-12-05T06:00:52.723Z,1.1
2018-12-05T06:05:52.645Z,1
2018-12-05T06:10:52.742Z,0.9
2018-12-05T06:15:52.753Z,0.9
2018-12-05T06:20:52.605Z,0.9
2018-12-05T06:25:52.824Z,0.8
2018-12-05T06:30:52.700Z,0.7
2018-12-05T06:35:52.555Z,0.7
2018-12-05T06:40:52.823Z,0.7
2018-12-05T06:45:52.607Z,0.6
2018-12-05T06:50:52.800Z,0.6
2018-12-05T06:55:52.827Z,0.6
2018-12-05T07:00:52.740Z,0.6
2018-12-05T07:05:52.779Z,0.7
2018-12-05T07:10:52.832Z,0.7
2018-12-05T07:15:52.746Z,0.8
2018-12-05T07:20:52.785Z,0.9
2018-12-05T07:25:52.835Z,0.9
2018-12-05T07:30:52.870Z,1
2018-12-05T07:35:52.778Z,1.1
2018-12-05T07:40:52.820Z,1.2
2018-12-05T07:45:52.868Z,1.2
2018-12-05T07:50:52.778Z,1.3
2018-12-05T07:55:52.628Z,1.4
2018-12-05T08:00:52.866Z,1.4
2018-12-05T08:05:52.649Z,1.5
2018-12-05T08:10:52.652Z,1.5
2018-12-05T08:15:52.876Z,1.6
2018-12-05T08:20:52.885Z,1.6
2018-12-05T08:25:52.811Z,1.7
2018-12-05T08:30:52.784Z,1.8
2018-12-05T08:35:52.781Z,1.8
2018-12-05T08:40:52.813Z,1.9
2018-12-05T08:45:52.672Z,2.1
2018-12-05T08:50:52.899Z,2.3
2018-12-05T08:55:52.814Z,2.4
2018-12-05T09:00:52.679Z,2.5
2018-12-05T09:05:52.648Z,2.5
2018-12-05T09:10:52.814Z,2.6
2018-12-05T09:15:52.850Z,2.6
2018-12-05T09:20:52.694Z,2.6
2018-12-05T09:25:52.930Z,2.7
2018-12-05T09:30:52.843Z,2.7
2018-12-05T09:35:52.680Z,2.8
2018-12-05T09:40:52.704Z,2.8
2018-12-05T09:45:52.842Z,2.8
2018-12-05T09:50:52.879Z,2.8
2018-12-05T09:55:52.919Z,2.9
2018-12-05T10:00:52.843Z,2.9
2018-12-05T10:05:52.877Z,3
2018-12-05T10:10:52.926Z,3.1
2018-12-05T10:15:52.841Z,3.1
2018-12-05T10:20:55.888Z,3.3
2018-12-05T10:25:52.879Z,3.3
2018-12-05T10:30:52.843Z,3.4
2018-12-05T10:35:52.880Z,3.6
2018-12-05T10:40:52.932Z,3.8
2018-12-05T10:45:52.857Z,4
2018-12-05T10:50:52.718Z,4.1
2018-12-05T10:55:52.919Z,4.2
2018-12-05T11:00:52.741Z,4.2
2018-12-05T11:05:52.727Z,4.3
2018-12-05T11:10:52.928Z,4.5
2018-12-05T11:15:52.962Z,4.6
2018-12-05T11:20:52.876Z,4.7
2018-12-05T11:25:52.907Z,4.8
2018-12-05T11:30:52.734Z,4.8
2018-12-05T11:35:52.746Z,4.9
2018-12-05T11:40:52.908Z,5
2018-12-05T11:45:52.960Z,5
2018-12-05T11:50:52.758Z,5
2018-12-05T11:55:52.904Z,5
2018-12-05T12:00:52.962Z,5.1
2018-12-05T12:05:52.753Z,5.1
2018-12-05T12:10:52.771Z,5.2
2018-12-05T12:15:52.775Z,5.2
2018-12-05T12:20:52.997Z,5.3
2018-12-05T12:25:52.752Z,5.3
2018-12-05T12:30:52.949Z,5.4
2018-12-05T12:35:52.989Z,5.3
2018-12-05T12:40:52.912Z,5.2
2018-12-05T12:45:52.948Z,5.1
2018-12-05T12:50:52.999Z,5.1
2018-12-05T12:55:53.042Z,5
2018-12-05T13:00:52.947Z,4.9
2018-12-05T13:05:52.807Z,4.8
2018-12-05T13:10:52.910Z,4.6
2018-12-05T13:15:52.941Z,4.6
2018-12-05T13:20:53.002Z,4.5
2018-12-05T13:25:53.032Z,4.4
2018-12-05T13:30:52.941Z,4.4
2018-12-05T13:35:52.934Z,4.3
2018-12-05T13:40:53.019Z,4.3
2018-12-05T13:45:53.049Z,4.3
2018-12-05T13:50:52.835Z,4.2
2018-12-05T13:55:53.035Z,4.1
2018-12-05T14:00:53.058Z,4.1
2018-12-05T14:05:52.979Z,4
2018-12-05T14:10:53.020Z,4
2018-12-05T14:15:52.940Z,3.9
2018-12-05T14:20:52.834Z,3.8
2018-12-05T14:25:53.018Z,3.8
2018-12-05T14:30:53.057Z,3.8
2018-12-05T14:35:52.832Z,3.7
2018-12-05T14:40:52.840Z,3.7
2018-12-05T14:45:52.850Z,3.7
2018-12-05T14:50:52.975Z,3.6
2018-12-05T14:55:53.008Z,3.6
2018-12-05T15:00:53.058Z,3.6
2018-12-05T15:05:53.084Z,3.5
2018-12-05T15:10:53.014Z,3.4
2018-12-05T15:15:53.051Z,3.4
2018-12-05T15:20:53.098Z,3.3
2018-12-05T15:25:52.968Z,3.2
2018-12-05T15:30:52.863Z,3.1
2018-12-05T15:35:53.060Z,3.1
2018-12-05T15:40:53.124Z,3.1
2018-12-05T15:45:52.882Z,3.1
2018-12-05T15:50:52.988Z,3
2018-12-05T15:55:53.004Z,3
2018-12-05T16:00:53.043Z,2.9
2018-12-05T16:05:52.878Z,2.9
2018-12-05T16:10:53.009Z,2.8
2018-12-05T16:15:53.042Z,2.8
2018-12-05T16:20:52.885Z,2.8
2018-12-05T16:25:52.889Z,2.8
2018-12-05T16:30:52.942Z,2.8
2018-12-05T16:35:52.906Z,2.7
2018-12-05T16:40:53.109Z,2.8
2018-12-05T16:45:52.905Z,2.8
2018-12-05T16:50:53.104Z,2.8
2018-12-05T16:55:52.909Z,2.8
2018-12-05T17:00:52.902Z,2.8
2018-12-05T17:05:52.891Z,2.8
2018-12-05T17:10:52.909Z,2.8
2018-12-05T17:15:52.910Z,2.8
2018-12-05T17:20:53.565Z,2.8
2018-12-05T17:25:52.928Z,2.8
2018-12-05T17:30:52.949Z,2.8
2018-12-05T17:35:52.886Z,2.8
2018-12-05T17:40:52.931Z,2.7
2018-12-05T17:45:52.932Z,2.7
2018-12-05T17:50:52.931Z,2.7
2018-12-05T17:55:52.966Z,2.6
2018-12-05T18:00:52.906Z,2.6
2018-12-05T18:05:53.405Z,2.5
2018-12-05T18:10:52.957Z,2.5
2018-12-05T18:15:53.171Z,2.5
2018-12-05T18:20:53.208Z,2.5
2018-12-05T18:25:53.072Z,2.4
2018-12-05T18:30:53.155Z,2.4
2018-12-05T18:35:53.185Z,2.4
2018-12-05T18:40:53.113Z,2.4
2018-12-05T18:45:53.158Z,2.4
2018-12-05T18:50:52.978Z,2.3
2018-12-05T18:55:52.997Z,2.3
2018-12-05T19:00:53.007Z,2.3
2018-12-05T19:05:52.942Z,2.3
2018-12-05T19:10:53.011Z,2.2
2018-12-05T19:15:53.148Z,2.2
2018-12-05T19:20:53.000Z,2.2
2018-12-05T19:25:53.187Z,2.2
2018-12-05T19:30:53.067Z,2.2
2018-12-05T19:35:53.008Z,2.2
2018-12-05T19:40:53.008Z,2.2
2018-12-05T19:45:53.003Z,2.2
2018-12-05T19:50:53.201Z,2.2
2018-12-05T19:55:53.338Z,2.2
2018-12-05T20:00:56.357Z,2.2
2018-12-05T20:05:53.205Z,2.2
2018-12-05T20:10:54.095Z,2.1
2018-12-05T20:15:53.027Z,2.1
2018-12-05T20:20:53.036Z,2.1
2018-12-05T20:25:53.081Z,2.1
2018-12-05T20:30:53.157Z,2
2018-12-05T20:35:53.153Z,2
2018-12-05T20:40:53.247Z,2
2018-12-05T20:45:53.239Z,2
2018-12-05T20:50:53.580Z,1.9
2018-12-05T20:55:53.235Z,1.9
2018-12-05T21:00:53.158Z,1.9
2018-12-05T21:05:53.049Z,1.9
2018-12-05T21:10:53.046Z,1.9
2018-12-05T21:15:53.096Z,1.8
2018-12-05T21:20:53.368Z,1.8
2018-12-05T21:25:53.237Z,1.7
2018-12-05T21:30:53.388Z,1.7
2018-12-05T21:35:53.071Z,1.7
2018-12-05T21:40:53.244Z,1.7
2018-12-05T21:45:53.163Z,1.7
2018-12-05T21:50:53.284Z,1.7
2018-12-05T21:55:53.313Z,1.7
2018-12-05T22:00:53.204Z,1.7
2018-12-05T22:05:53.148Z,1.7
2018-12-05T22:10:53.188Z,1.7
2018-12-05T22:15:53.018Z,1.7
2018-12-05T22:20:53.224Z,1.7
2018-12-05T22:25:53.212Z,1.8
2018-12-05T22:30:53.259Z,1.8
2018-12-05T22:35:53.070Z,1.8
2018-12-05T22:40:53.100Z,1.8
2018-12-05T22:45:53.094Z,1.8
2018-12-05T22:50:53.295Z,1.8
2018-12-05T22:55:53.289Z,1.8
2018-12-05T23:00:53.264Z,1.8
2018-12-05T23:05:53.099Z,1.8
2018-12-05T23:10:53.223Z,1.8
2018-12-05T23:15:53.201Z,1.9
2018-12-05T23:20:53.300Z,1.9
2018-12-05T23:25:53.333Z,1.8
2018-12-05T23:30:53.111Z,1.9
2018-12-05T23:35:53.071Z,1.8
2018-12-05T23:40:53.213Z,1.8
2018-12-05T23:45:53.248Z,1.8
2018-12-05T23:50:53.291Z,1.8
2018-12-05T23:55:53.323Z,1.8
